sensor_id;sensor_type;location;lat;lon;timestamp;P1;durP1;ratioP1;P2;durP2;ratioP2
4700;SDS011;8724;51.272;6.554;2023-04-16T00:01:26;7.60;;;4.13;;
4700;SDS011;8724;51.272;6.554;2023-04-16T00:03:54;10.77;;;4.77;;
4700;SDS011;8724;51.272;6.554;2023-04-16T00:06:23;6.07;;;4.23;;
4700;SDS011;8724;51.272;6.554;2023-04-16T00:08:53;6.83;;;4.80;;
4700;SDS011;8724;51.272;6.554;2023-04-16T00:11:21;7.73;;;4.10;;
4700;SDS011;8724;51.272;6.554;2023-04-16T00:13:49;7.53;;;4.50;;
4700;SDS011;8724;51.272;6.554;2023-04-16T00:16:19;6.33;;;5.00;;
4700;SDS011;8724;51.272;6.554;2023-04-16T00:18:47;8.03;;;5.10;;
4700;SDS011;8724;51.272;6.554;2023-04-16T00:21:15;10.30;;;5.27;;
4700;SDS011;8724;51.272;6.554;2023-04-16T00:23:44;11.07;;;5.17;;
4700;SDS011;8724;51.272;6.554;2023-04-16T00:26:12;10.03;;;5.07;;
4700;SDS011;8724;51.272;6.554;2023-04-16T00:28:43;5.13;;;4.37;;
4700;SDS011;8724;51.272;6.554;2023-04-16T00:31:11;8.67;;;5.00;;
4700;SDS011;8724;51.272;6.554;2023-04-16T00:33:41;8.73;;;5.10;;
4700;SDS011;8724;51.272;6.554;2023-04-16T00:36:10;6.40;;;4.50;;
4700;SDS011;8724;51.272;6.554;2023-04-16T00:38:38;10.17;;;5.03;;
4700;SDS011;8724;51.272;6.554;2023-04-16T00:41:06;8.77;;;5.27;;
4700;SDS011;8724;51.272;6.554;2023-04-16T00:43:35;9.67;;;5.67;;
4700;SDS011;8724;51.272;6.554;2023-04-16T00:46:03;12.47;;;4.97;;
4700;SDS011;8724;51.272;6.554;2023-04-16T00:48:33;5.60;;;4.20;;
4700;SDS011;8724;51.272;6.554;2023-04-16T00:51:04;9.47;;;4.90;;
4700;SDS011;8724;51.272;6.554;2023-04-16T00:53:33;9.03;;;5.17;;
4700;SDS011;8724;51.272;6.554;2023-04-16T00:56:03;8.23;;;5.17;;
4700;SDS011;8724;51.272;6.554;2023-04-16T00:58:36;8.13;;;5.00;;
4700;SDS011;8724;51.272;6.554;2023-04-16T01:01:05;8.63;;;5.20;;
4700;SDS011;8724;51.272;6.554;2023-04-16T01:03:36;12.20;;;5.60;;
4700;SDS011;8724;51.272;6.554;2023-04-16T01:06:07;7.67;;;4.73;;
4700;SDS011;8724;51.272;6.554;2023-04-16T01:08:36;10.13;;;5.43;;
4700;SDS011;8724;51.272;6.554;2023-04-16T01:11:05;8.23;;;5.43;;
4700;SDS011;8724;51.272;6.554;2023-04-16T01:13:34;8.80;;;5.93;;
4700;SDS011;8724;51.272;6.554;2023-04-16T01:16:05;9.13;;;5.63;;
4700;SDS011;8724;51.272;6.554;2023-04-16T01:18:34;9.27;;;6.27;;
4700;SDS011;8724;51.272;6.554;2023-04-16T01:21:04;10.83;;;6.10;;
4700;SDS011;8724;51.272;6.554;2023-04-16T01:23:33;10.53;;;6.37;;
4700;SDS011;8724;51.272;6.554;2023-04-16T01:26:02;10.77;;;6.23;;
4700;SDS011;8724;51.272;6.554;2023-04-16T01:28:30;8.30;;;4.73;;
4700;SDS011;8724;51.272;6.554;2023-04-16T01:30:59;9.97;;;6.20;;
4700;SDS011;8724;51.272;6.554;2023-04-16T01:33:37;12.10;;;6.93;;
4700;SDS011;8724;51.272;6.554;2023-04-16T01:36:07;11.60;;;7.40;;
4700;SDS011;8724;51.272;6.554;2023-04-16T01:38:36;16.27;;;7.60;;
4700;SDS011;8724;51.272;6.554;2023-04-16T01:41:04;9.67;;;6.70;;
4700;SDS011;8724;51.272;6.554;2023-04-16T01:43:33;11.70;;;7.10;;
4700;SDS011;8724;51.272;6.554;2023-04-16T01:46:11;15.60;;;7.67;;
4700;SDS011;8724;51.272;6.554;2023-04-16T01:48:41;14.90;;;6.90;;
4700;SDS011;8724;51.272;6.554;2023-04-16T01:51:11;10.00;;;7.03;;
4700;SDS011;8724;51.272;6.554;2023-04-16T01:53:39;8.93;;;7.67;;
4700;SDS011;8724;51.272;6.554;2023-04-16T01:56:08;10.87;;;6.70;;
4700;SDS011;8724;51.272;6.554;2023-04-16T01:58:36;11.20;;;7.57;;
4700;SDS011;8724;51.272;6.554;2023-04-16T02:01:05;19.50;;;8.13;;
4700;SDS011;8724;51.272;6.554;2023-04-16T02:03:33;10.73;;;7.03;;
4700;SDS011;8724;51.272;6.554;2023-04-16T02:06:03;14.47;;;7.43;;
4700;SDS011;8724;51.272;6.554;2023-04-16T02:08:33;13.87;;;6.90;;
4700;SDS011;8724;51.272;6.554;2023-04-16T02:11:01;16.10;;;7.77;;
4700;SDS011;8724;51.272;6.554;2023-04-16T02:13:29;13.73;;;8.37;;
4700;SDS011;8724;51.272;6.554;2023-04-16T02:15:58;11.70;;;7.23;;
4700;SDS011;8724;51.272;6.554;2023-04-16T02:18:49;12.17;;;7.30;;
4700;SDS011;8724;51.272;6.554;2023-04-16T02:21:20;13.87;;;7.93;;
4700;SDS011;8724;51.272;6.554;2023-04-16T02:23:50;8.60;;;6.97;;
4700;SDS011;8724;51.272;6.554;2023-04-16T02:26:24;11.53;;;7.67;;
4700;SDS011;8724;51.272;6.554;2023-04-16T02:28:58;16.13;;;9.90;;
4700;SDS011;8724;51.272;6.554;2023-04-16T02:31:35;14.87;;;8.40;;
4700;SDS011;8724;51.272;6.554;2023-04-16T02:34:04;14.80;;;8.70;;
4700;SDS011;8724;51.272;6.554;2023-04-16T02:36:33;16.47;;;9.00;;
4700;SDS011;8724;51.272;6.554;2023-04-16T02:39:03;11.30;;;8.00;;
4700;SDS011;8724;51.272;6.554;2023-04-16T02:41:32;14.33;;;8.60;;
4700;SDS011;8724;51.272;6.554;2023-04-16T02:44:01;14.40;;;8.50;;
4700;SDS011;8724;51.272;6.554;2023-04-16T02:46:29;13.00;;;7.90;;
4700;SDS011;8724;51.272;6.554;2023-04-16T02:48:58;11.97;;;8.30;;
4700;SDS011;8724;51.272;6.554;2023-04-16T02:51:27;13.87;;;8.20;;
4700;SDS011;8724;51.272;6.554;2023-04-16T02:53:56;12.47;;;7.87;;
4700;SDS011;8724;51.272;6.554;2023-04-16T02:56:26;12.03;;;7.80;;
4700;SDS011;8724;51.272;6.554;2023-04-16T02:58:54;12.67;;;8.30;;
4700;SDS011;8724;51.272;6.554;2023-04-16T03:01:23;13.00;;;8.80;;
4700;SDS011;8724;51.272;6.554;2023-04-16T03:03:51;12.60;;;8.70;;
4700;SDS011;8724;51.272;6.554;2023-04-16T03:06:20;13.13;;;8.03;;
4700;SDS011;8724;51.272;6.554;2023-04-16T03:08:48;15.97;;;9.83;;
4700;SDS011;8724;51.272;6.554;2023-04-16T03:11:17;16.00;;;9.60;;
4700;SDS011;8724;51.272;6.554;2023-04-16T03:13:47;14.30;;;9.07;;
4700;SDS011;8724;51.272;6.554;2023-04-16T03:16:15;12.60;;;9.33;;
4700;SDS011;8724;51.272;6.554;2023-04-16T03:18:44;13.63;;;7.70;;
4700;SDS011;8724;51.272;6.554;2023-04-16T03:21:12;15.70;;;9.57;;
4700;SDS011;8724;51.272;6.554;2023-04-16T03:23:41;14.47;;;9.40;;
4700;SDS011;8724;51.272;6.554;2023-04-16T03:26:09;17.90;;;9.77;;
4700;SDS011;8724;51.272;6.554;2023-04-16T03:28:38;16.70;;;9.73;;
4700;SDS011;8724;51.272;6.554;2023-04-16T03:31:08;21.47;;;10.90;;
4700;SDS011;8724;51.272;6.554;2023-04-16T03:33:36;20.87;;;12.43;;
4700;SDS011;8724;51.272;6.554;2023-04-16T03:36:05;15.83;;;9.70;;
4700;SDS011;8724;51.272;6.554;2023-04-16T03:38:33;13.47;;;10.03;;
4700;SDS011;8724;51.272;6.554;2023-04-16T03:41:02;18.80;;;9.70;;
4700;SDS011;8724;51.272;6.554;2023-04-16T03:43:32;12.83;;;9.80;;
4700;SDS011;8724;51.272;6.554;2023-04-16T03:46:00;13.97;;;9.73;;
4700;SDS011;8724;51.272;6.554;2023-04-16T03:48:30;17.83;;;9.53;;
4700;SDS011;8724;51.272;6.554;2023-04-16T03:51:00;18.90;;;10.40;;
4700;SDS011;8724;51.272;6.554;2023-04-16T03:53:34;15.43;;;10.40;;
4700;SDS011;8724;51.272;6.554;2023-04-16T03:56:05;18.10;;;10.80;;
4700;SDS011;8724;51.272;6.554;2023-04-16T03:58:42;17.70;;;10.30;;
4700;SDS011;8724;51.272;6.554;2023-04-16T04:01:20;13.73;;;9.83;;
4700;SDS011;8724;51.272;6.554;2023-04-16T04:03:59;17.20;;;10.40;;
4700;SDS011;8724;51.272;6.554;2023-04-16T04:06:36;17.63;;;10.50;;
4700;SDS011;8724;51.272;6.554;2023-04-16T04:09:06;18.53;;;11.83;;
4700;SDS011;8724;51.272;6.554;2023-04-16T04:11:42;13.87;;;9.57;;
4700;SDS011;8724;51.272;6.554;2023-04-16T04:14:35;15.80;;;9.50;;
4700;SDS011;8724;51.272;6.554;2023-04-16T04:17:13;18.23;;;10.03;;
4700;SDS011;8724;51.272;6.554;2023-04-16T04:19:52;14.70;;;9.40;;
4700;SDS011;8724;51.272;6.554;2023-04-16T04:22:43;16.00;;;10.27;;
4700;SDS011;8724;51.272;6.554;2023-04-16T04:28:22;14.70;;;10.17;;
4700;SDS011;8724;51.272;6.554;2023-04-16T04:31:00;16.60;;;10.67;;
4700;SDS011;8724;51.272;6.554;2023-04-16T04:33:36;16.57;;;12.90;;
4700;SDS011;8724;51.272;6.554;2023-04-16T04:36:19;28.97;;;20.60;;
4700;SDS011;8724;51.272;6.554;2023-04-16T04:39:00;19.07;;;12.07;;
4700;SDS011;8724;51.272;6.554;2023-04-16T04:41:40;23.50;;;17.77;;
4700;SDS011;8724;51.272;6.554;2023-04-16T04:44:10;16.60;;;12.63;;
4700;SDS011;8724;51.272;6.554;2023-04-16T04:46:50;13.27;;;9.67;;
4700;SDS011;8724;51.272;6.554;2023-04-16T04:49:18;23.23;;;11.97;;
4700;SDS011;8724;51.272;6.554;2023-04-16T04:52:02;17.33;;;11.40;;
4700;SDS011;8724;51.272;6.554;2023-04-16T04:54:38;19.83;;;11.33;;
4700;SDS011;8724;51.272;6.554;2023-04-16T04:57:16;16.43;;;11.80;;
4700;SDS011;8724;51.272;6.554;2023-04-16T04:59:55;17.33;;;11.60;;
4700;SDS011;8724;51.272;6.554;2023-04-16T05:02:42;15.23;;;10.10;;
4700;SDS011;8724;51.272;6.554;2023-04-16T05:05:15;16.93;;;9.97;;
4700;SDS011;8724;51.272;6.554;2023-04-16T05:07:49;14.20;;;9.40;;
4700;SDS011;8724;51.272;6.554;2023-04-16T05:10:40;17.20;;;11.40;;
4700;SDS011;8724;51.272;6.554;2023-04-16T05:13:14;18.70;;;10.70;;
4700;SDS011;8724;51.272;6.554;2023-04-16T05:15:45;14.17;;;10.10;;
4700;SDS011;8724;51.272;6.554;2023-04-16T05:18:21;14.70;;;11.43;;
4700;SDS011;8724;51.272;6.554;2023-04-16T05:20:59;15.23;;;10.53;;
4700;SDS011;8724;51.272;6.554;2023-04-16T05:23:33;21.07;;;11.97;;
4700;SDS011;8724;51.272;6.554;2023-04-16T05:26:10;18.70;;;11.53;;
4700;SDS011;8724;51.272;6.554;2023-04-16T05:28:42;13.13;;;9.40;;
4700;SDS011;8724;51.272;6.554;2023-04-16T05:31:18;12.50;;;8.40;;
4700;SDS011;8724;51.272;6.554;2023-04-16T05:33:55;13.33;;;10.30;;
4700;SDS011;8724;51.272;6.554;2023-04-16T05:36:27;16.60;;;11.40;;
4700;SDS011;8724;51.272;6.554;2023-04-16T05:39:17;17.57;;;12.20;;
4700;SDS011;8724;51.272;6.554;2023-04-16T05:41:48;16.20;;;9.83;;
4700;SDS011;8724;51.272;6.554;2023-04-16T05:44:21;19.60;;;10.47;;
4700;SDS011;8724;51.272;6.554;2023-04-16T05:46:55;16.70;;;11.30;;
4700;SDS011;8724;51.272;6.554;2023-04-16T05:49:24;16.27;;;11.80;;
4700;SDS011;8724;51.272;6.554;2023-04-16T05:51:52;30.57;;;20.43;;
4700;SDS011;8724;51.272;6.554;2023-04-16T05:57:42;19.80;;;12.67;;
4700;SDS011;8724;51.272;6.554;2023-04-16T06:00:11;18.93;;;12.80;;
4700;SDS011;8724;51.272;6.554;2023-04-16T06:02:41;18.90;;;13.20;;
4700;SDS011;8724;51.272;6.554;2023-04-16T06:05:10;15.20;;;11.87;;
4700;SDS011;8724;51.272;6.554;2023-04-16T06:07:38;16.57;;;12.27;;
4700;SDS011;8724;51.272;6.554;2023-04-16T06:10:07;18.00;;;12.30;;
4700;SDS011;8724;51.272;6.554;2023-04-16T06:12:36;17.93;;;12.77;;
4700;SDS011;8724;51.272;6.554;2023-04-16T06:15:06;19.87;;;12.73;;
4700;SDS011;8724;51.272;6.554;2023-04-16T06:17:35;18.63;;;11.80;;
4700;SDS011;8724;51.272;6.554;2023-04-16T06:20:04;25.33;;;13.20;;
4700;SDS011;8724;51.272;6.554;2023-04-16T06:22:33;17.73;;;12.80;;
4700;SDS011;8724;51.272;6.554;2023-04-16T06:25:01;21.90;;;13.97;;
4700;SDS011;8724;51.272;6.554;2023-04-16T06:27:30;19.53;;;12.27;;
4700;SDS011;8724;51.272;6.554;2023-04-16T06:29:58;19.67;;;13.10;;
4700;SDS011;8724;51.272;6.554;2023-04-16T06:32:28;20.90;;;13.60;;
4700;SDS011;8724;51.272;6.554;2023-04-16T06:34:57;18.57;;;12.13;;
4700;SDS011;8724;51.272;6.554;2023-04-16T06:37:25;19.87;;;13.03;;
4700;SDS011;8724;51.272;6.554;2023-04-16T06:39:53;20.43;;;13.20;;
4700;SDS011;8724;51.272;6.554;2023-04-16T06:42:22;30.53;;;20.67;;
4700;SDS011;8724;51.272;6.554;2023-04-16T06:44:50;41.80;;;29.57;;
4700;SDS011;8724;51.272;6.554;2023-04-16T06:47:18;20.03;;;13.77;;
4700;SDS011;8724;51.272;6.554;2023-04-16T06:49:48;17.43;;;11.73;;
4700;SDS011;8724;51.272;6.554;2023-04-16T06:52:17;22.07;;;12.60;;
4700;SDS011;8724;51.272;6.554;2023-04-16T06:54:46;19.33;;;11.70;;
4700;SDS011;8724;51.272;6.554;2023-04-16T06:57:15;20.27;;;13.03;;
4700;SDS011;8724;51.272;6.554;2023-04-16T06:59:43;20.90;;;12.87;;
4700;SDS011;8724;51.272;6.554;2023-04-16T07:02:11;15.43;;;11.13;;
4700;SDS011;8724;51.272;6.554;2023-04-16T07:04:40;19.57;;;13.77;;
4700;SDS011;8724;51.272;6.554;2023-04-16T07:07:10;17.83;;;12.93;;
4700;SDS011;8724;51.272;6.554;2023-04-16T07:09:38;20.60;;;14.00;;
4700;SDS011;8724;51.272;6.554;2023-04-16T07:12:06;19.60;;;13.10;;
4700;SDS011;8724;51.272;6.554;2023-04-16T07:14:35;23.40;;;14.13;;
4700;SDS011;8724;51.272;6.554;2023-04-16T07:17:03;19.73;;;14.03;;
4700;SDS011;8724;51.272;6.554;2023-04-16T07:19:31;20.47;;;13.03;;
4700;SDS011;8724;51.272;6.554;2023-04-16T07:22:00;23.00;;;14.80;;
4700;SDS011;8724;51.272;6.554;2023-04-16T07:24:30;20.77;;;13.47;;
4700;SDS011;8724;51.272;6.554;2023-04-16T07:26:59;36.90;;;23.70;;
4700;SDS011;8724;51.272;6.554;2023-04-16T07:29:27;43.60;;;29.97;;
4700;SDS011;8724;51.272;6.554;2023-04-16T07:31:55;32.50;;;20.80;;
4700;SDS011;8724;51.272;6.554;2023-04-16T07:34:24;22.30;;;15.67;;
4700;SDS011;8724;51.272;6.554;2023-04-16T07:36:52;22.40;;;15.80;;
4700;SDS011;8724;51.272;6.554;2023-04-16T07:39:21;22.43;;;15.73;;
4700;SDS011;8724;51.272;6.554;2023-04-16T07:41:50;27.50;;;16.13;;
4700;SDS011;8724;51.272;6.554;2023-04-16T07:44:19;23.27;;;15.30;;
4700;SDS011;8724;51.272;6.554;2023-04-16T07:46:47;23.37;;;15.37;;
4700;SDS011;8724;51.272;6.554;2023-04-16T07:49:16;23.63;;;16.30;;
4700;SDS011;8724;51.272;6.554;2023-04-16T07:51:44;24.40;;;14.40;;
4700;SDS011;8724;51.272;6.554;2023-04-16T07:54:12;22.00;;;14.57;;
4700;SDS011;8724;51.272;6.554;2023-04-16T07:56:40;23.37;;;15.47;;
4700;SDS011;8724;51.272;6.554;2023-04-16T07:59:10;22.17;;;13.93;;
4700;SDS011;8724;51.272;6.554;2023-04-16T08:01:48;21.70;;;14.47;;
4700;SDS011;8724;51.272;6.554;2023-04-16T08:04:17;22.00;;;15.50;;
4700;SDS011;8724;51.272;6.554;2023-04-16T08:06:51;20.50;;;15.43;;
4700;SDS011;8724;51.272;6.554;2023-04-16T08:09:21;22.80;;;15.33;;
4700;SDS011;8724;51.272;6.554;2023-04-16T08:11:50;22.87;;;15.97;;
4700;SDS011;8724;51.272;6.554;2023-04-16T08:14:20;22.93;;;14.90;;
4700;SDS011;8724;51.272;6.554;2023-04-16T08:16:48;26.33;;;17.43;;
4700;SDS011;8724;51.272;6.554;2023-04-16T08:19:16;24.67;;;15.87;;
4700;SDS011;8724;51.272;6.554;2023-04-16T08:21:45;30.63;;;21.47;;
4700;SDS011;8724;51.272;6.554;2023-04-16T08:24:14;38.67;;;25.37;;
4700;SDS011;8724;51.272;6.554;2023-04-16T08:26:42;29.33;;;21.00;;
4700;SDS011;8724;51.272;6.554;2023-04-16T08:29:10;31.27;;;19.20;;
4700;SDS011;8724;51.272;6.554;2023-04-16T08:31:40;24.90;;;17.50;;
4700;SDS011;8724;51.272;6.554;2023-04-16T08:34:09;22.67;;;15.10;;
4700;SDS011;8724;51.272;6.554;2023-04-16T08:36:38;22.03;;;16.37;;
4700;SDS011;8724;51.272;6.554;2023-04-16T08:39:07;20.30;;;14.60;;
4700;SDS011;8724;51.272;6.554;2023-04-16T08:41:40;21.60;;;15.77;;
4700;SDS011;8724;51.272;6.554;2023-04-16T08:44:10;22.90;;;15.33;;
4700;SDS011;8724;51.272;6.554;2023-04-16T08:46:45;22.83;;;15.47;;
4700;SDS011;8724;51.272;6.554;2023-04-16T08:49:14;23.73;;;17.63;;
4700;SDS011;8724;51.272;6.554;2023-04-16T08:51:46;30.67;;;18.70;;
4700;SDS011;8724;51.272;6.554;2023-04-16T08:54:30;24.03;;;17.27;;
4700;SDS011;8724;51.272;6.554;2023-04-16T08:57:22;24.10;;;16.83;;
4700;SDS011;8724;51.272;6.554;2023-04-16T08:59:53;23.53;;;17.97;;
4700;SDS011;8724;51.272;6.554;2023-04-16T09:02:23;24.57;;;16.50;;
4700;SDS011;8724;51.272;6.554;2023-04-16T09:04:53;24.63;;;16.90;;
4700;SDS011;8724;51.272;6.554;2023-04-16T09:07:23;23.97;;;16.37;;
4700;SDS011;8724;51.272;6.554;2023-04-16T09:09:54;25.60;;;18.47;;
4700;SDS011;8724;51.272;6.554;2023-04-16T09:12:24;26.20;;;16.80;;
4700;SDS011;8724;51.272;6.554;2023-04-16T09:14:53;25.43;;;17.67;;
4700;SDS011;8724;51.272;6.554;2023-04-16T09:17:24;23.97;;;18.23;;
4700;SDS011;8724;51.272;6.554;2023-04-16T09:19:53;40.50;;;29.77;;
4700;SDS011;8724;51.272;6.554;2023-04-16T09:22:21;36.20;;;25.90;;
4700;SDS011;8724;51.272;6.554;2023-04-16T09:24:49;23.10;;;17.10;;
4700;SDS011;8724;51.272;6.554;2023-04-16T09:27:18;24.40;;;16.37;;
4700;SDS011;8724;51.272;6.554;2023-04-16T09:29:50;22.27;;;16.13;;
4700;SDS011;8724;51.272;6.554;2023-04-16T09:32:23;24.00;;;16.17;;
4700;SDS011;8724;51.272;6.554;2023-04-16T09:34:54;27.17;;;17.67;;
4700;SDS011;8724;51.272;6.554;2023-04-16T09:37:24;24.83;;;18.17;;
4700;SDS011;8724;51.272;6.554;2023-04-16T09:39:55;24.43;;;17.83;;
4700;SDS011;8724;51.272;6.554;2023-04-16T09:42:25;22.73;;;18.60;;
4700;SDS011;8724;51.272;6.554;2023-04-16T09:44:54;24.60;;;17.07;;
4700;SDS011;8724;51.272;6.554;2023-04-16T09:47:38;23.50;;;17.73;;
4700;SDS011;8724;51.272;6.554;2023-04-16T09:50:08;20.60;;;15.40;;
4700;SDS011;8724;51.272;6.554;2023-04-16T09:52:44;21.87;;;17.30;;
4700;SDS011;8724;51.272;6.554;2023-04-16T09:55:15;30.33;;;19.70;;
4700;SDS011;8724;51.272;6.554;2023-04-16T09:57:52;25.63;;;18.87;;
4700;SDS011;8724;51.272;6.554;2023-04-16T10:00:27;26.57;;;18.37;;
4700;SDS011;8724;51.272;6.554;2023-04-16T10:03:05;27.43;;;18.20;;
4700;SDS011;8724;51.272;6.554;2023-04-16T10:05:33;21.57;;;17.67;;
4700;SDS011;8724;51.272;6.554;2023-04-16T10:08:02;23.40;;;17.70;;
4700;SDS011;8724;51.272;6.554;2023-04-16T10:10:39;28.80;;;19.10;;
4700;SDS011;8724;51.272;6.554;2023-04-16T10:13:11;24.40;;;17.63;;
4700;SDS011;8724;51.272;6.554;2023-04-16T10:15:43;25.00;;;16.60;;
4700;SDS011;8724;51.272;6.554;2023-04-16T10:18:12;25.10;;;17.43;;
4700;SDS011;8724;51.272;6.554;2023-04-16T10:20:42;23.90;;;17.50;;
4700;SDS011;8724;51.272;6.554;2023-04-16T10:23:11;26.03;;;17.67;;
4700;SDS011;8724;51.272;6.554;2023-04-16T10:25:39;22.30;;;16.83;;
4700;SDS011;8724;51.272;6.554;2023-04-16T10:28:10;21.73;;;15.33;;
4700;SDS011;8724;51.272;6.554;2023-04-16T10:30:41;17.73;;;15.40;;
4700;SDS011;8724;51.272;6.554;2023-04-16T10:33:20;20.60;;;15.73;;
4700;SDS011;8724;51.272;6.554;2023-04-16T10:35:49;17.70;;;14.70;;
4700;SDS011;8724;51.272;6.554;2023-04-16T10:38:33;19.40;;;15.60;;
4700;SDS011;8724;51.272;6.554;2023-04-16T10:41:02;25.13;;;19.87;;
4700;SDS011;8724;51.272;6.554;2023-04-16T10:43:32;32.00;;;22.70;;
4700;SDS011;8724;51.272;6.554;2023-04-16T10:46:21;19.23;;;15.37;;
4700;SDS011;8724;51.272;6.554;2023-04-16T10:48:52;26.23;;;16.10;;
4700;SDS011;8724;51.272;6.554;2023-04-16T10:51:23;18.83;;;13.80;;
4700;SDS011;8724;51.272;6.554;2023-04-16T10:53:56;22.67;;;15.10;;
4700;SDS011;8724;51.272;6.554;2023-04-16T10:56:30;19.87;;;14.83;;
4700;SDS011;8724;51.272;6.554;2023-04-16T10:59:00;21.47;;;15.10;;
4700;SDS011;8724;51.272;6.554;2023-04-16T11:01:32;17.40;;;14.27;;
4700;SDS011;8724;51.272;6.554;2023-04-16T11:07:03;18.40;;;13.50;;
4700;SDS011;8724;51.272;6.554;2023-04-16T11:09:46;20.60;;;14.33;;
4700;SDS011;8724;51.272;6.554;2023-04-16T11:12:22;19.23;;;14.40;;
4700;SDS011;8724;51.272;6.554;2023-04-16T11:14:53;17.27;;;13.70;;
4700;SDS011;8724;51.272;6.554;2023-04-16T11:17:26;22.47;;;13.57;;
4700;SDS011;8724;51.272;6.554;2023-04-16T11:19:57;18.33;;;13.73;;
4700;SDS011;8724;51.272;6.554;2023-04-16T11:22:26;18.60;;;12.37;;
4700;SDS011;8724;51.272;6.554;2023-04-16T11:24:55;17.80;;;12.90;;
4700;SDS011;8724;51.272;6.554;2023-04-16T11:27:24;16.43;;;11.70;;
4700;SDS011;8724;51.272;6.554;2023-04-16T11:29:56;14.40;;;11.93;;
4700;SDS011;8724;51.272;6.554;2023-04-16T11:32:25;16.50;;;14.17;;
4700;SDS011;8724;51.272;6.554;2023-04-16T11:34:54;15.47;;;12.57;;
4700;SDS011;8724;51.272;6.554;2023-04-16T11:37:31;14.20;;;11.30;;
4700;SDS011;8724;51.272;6.554;2023-04-16T11:40:00;15.67;;;12.10;;
4700;SDS011;8724;51.272;6.554;2023-04-16T11:42:30;15.47;;;11.60;;
4700;SDS011;8724;51.272;6.554;2023-04-16T11:44:59;18.13;;;12.70;;
4700;SDS011;8724;51.272;6.554;2023-04-16T11:47:28;11.37;;;10.23;;
4700;SDS011;8724;51.272;6.554;2023-04-16T11:49:57;12.30;;;9.90;;
4700;SDS011;8724;51.272;6.554;2023-04-16T11:52:44;13.37;;;9.60;;
4700;SDS011;8724;51.272;6.554;2023-04-16T11:55:13;12.53;;;9.40;;
4700;SDS011;8724;51.272;6.554;2023-04-16T11:57:42;11.73;;;10.53;;
4700;SDS011;8724;51.272;6.554;2023-04-16T12:00:12;14.50;;;9.90;;
4700;SDS011;8724;51.272;6.554;2023-04-16T12:02:42;14.10;;;9.13;;
4700;SDS011;8724;51.272;6.554;2023-04-16T12:05:28;12.17;;;10.00;;
4700;SDS011;8724;51.272;6.554;2023-04-16T12:08:01;10.53;;;9.27;;
4700;SDS011;8724;51.272;6.554;2023-04-16T12:10:31;13.10;;;11.00;;
4700;SDS011;8724;51.272;6.554;2023-04-16T12:13:11;13.57;;;11.27;;
4700;SDS011;8724;51.272;6.554;2023-04-16T12:15:46;11.63;;;9.93;;
4700;SDS011;8724;51.272;6.554;2023-04-16T12:18:16;13.30;;;10.50;;
4700;SDS011;8724;51.272;6.554;2023-04-16T12:20:46;11.73;;;8.83;;
4700;SDS011;8724;51.272;6.554;2023-04-16T12:23:24;11.00;;;9.40;;
4700;SDS011;8724;51.272;6.554;2023-04-16T12:25:53;10.30;;;9.20;;
4700;SDS011;8724;51.272;6.554;2023-04-16T12:28:26;13.60;;;9.70;;
4700;SDS011;8724;51.272;6.554;2023-04-16T12:30:56;9.07;;;8.23;;
4700;SDS011;8724;51.272;6.554;2023-04-16T12:33:25;14.67;;;9.90;;
4700;SDS011;8724;51.272;6.554;2023-04-16T12:35:53;11.63;;;10.40;;
4700;SDS011;8724;51.272;6.554;2023-04-16T12:38:23;12.37;;;9.80;;
4700;SDS011;8724;51.272;6.554;2023-04-16T12:40:52;11.20;;;9.17;;
4700;SDS011;8724;51.272;6.554;2023-04-16T12:43:22;10.17;;;9.10;;
4700;SDS011;8724;51.272;6.554;2023-04-16T12:45:51;9.53;;;8.63;;
4700;SDS011;8724;51.272;6.554;2023-04-16T12:48:20;10.47;;;9.50;;
4700;SDS011;8724;51.272;6.554;2023-04-16T12:50:48;12.67;;;10.23;;
4700;SDS011;8724;51.272;6.554;2023-04-16T12:53:19;10.83;;;9.33;;
4700;SDS011;8724;51.272;6.554;2023-04-16T12:55:49;13.73;;;11.30;;
4700;SDS011;8724;51.272;6.554;2023-04-16T12:58:17;12.83;;;10.27;;
4700;SDS011;8724;51.272;6.554;2023-04-16T13:00:46;14.93;;;10.77;;
4700;SDS011;8724;51.272;6.554;2023-04-16T13:03:15;19.20;;;16.30;;
4700;SDS011;8724;51.272;6.554;2023-04-16T13:05:44;21.63;;;17.07;;
4700;SDS011;8724;51.272;6.554;2023-04-16T13:08:12;16.57;;;13.73;;
4700;SDS011;8724;51.272;6.554;2023-04-16T13:10:41;12.70;;;11.40;;
4700;SDS011;8724;51.272;6.554;2023-04-16T13:13:11;12.17;;;10.90;;
4700;SDS011;8724;51.272;6.554;2023-04-16T13:15:40;13.00;;;10.40;;
4700;SDS011;8724;51.272;6.554;2023-04-16T13:18:08;11.00;;;8.70;;
4700;SDS011;8724;51.272;6.554;2023-04-16T13:20:37;11.07;;;9.53;;
4700;SDS011;8724;51.272;6.554;2023-04-16T13:23:05;12.63;;;9.87;;
4700;SDS011;8724;51.272;6.554;2023-04-16T13:25:33;9.20;;;8.30;;
4700;SDS011;8724;51.272;6.554;2023-04-16T13:28:02;10.77;;;9.50;;
4700;SDS011;8724;51.272;6.554;2023-04-16T13:30:32;11.53;;;9.20;;
4700;SDS011;8724;51.272;6.554;2023-04-16T13:33:00;13.57;;;11.07;;
4700;SDS011;8724;51.272;6.554;2023-04-16T13:35:29;12.57;;;11.27;;
4700;SDS011;8724;51.272;6.554;2023-04-16T13:37:57;11.97;;;10.33;;
4700;SDS011;8724;51.272;6.554;2023-04-16T13:40:26;18.17;;;12.53;;
4700;SDS011;8724;51.272;6.554;2023-04-16T13:42:54;13.40;;;11.63;;
4700;SDS011;8724;51.272;6.554;2023-04-16T13:45:23;14.67;;;12.00;;
4700;SDS011;8724;51.272;6.554;2023-04-16T13:47:54;12.17;;;10.60;;
4700;SDS011;8724;51.272;6.554;2023-04-16T13:50:23;12.20;;;10.90;;
4700;SDS011;8724;51.272;6.554;2023-04-16T13:52:51;10.93;;;8.70;;
4700;SDS011;8724;51.272;6.554;2023-04-16T13:55:19;13.43;;;11.90;;
4700;SDS011;8724;51.272;6.554;2023-04-16T13:57:48;12.53;;;10.70;;
4700;SDS011;8724;51.272;6.554;2023-04-16T14:00:18;11.87;;;10.67;;
4700;SDS011;8724;51.272;6.554;2023-04-16T14:02:47;13.37;;;9.90;;
4700;SDS011;8724;51.272;6.554;2023-04-16T14:05:17;13.30;;;11.53;;
4700;SDS011;8724;51.272;6.554;2023-04-16T14:07:46;12.17;;;10.73;;
4700;SDS011;8724;51.272;6.554;2023-04-16T14:10:14;13.40;;;11.83;;
4700;SDS011;8724;51.272;6.554;2023-04-16T14:12:43;12.03;;;10.70;;
4700;SDS011;8724;51.272;6.554;2023-04-16T14:15:11;11.33;;;10.13;;
4700;SDS011;8724;51.272;6.554;2023-04-16T14:17:41;12.67;;;10.60;;
4700;SDS011;8724;51.272;6.554;2023-04-16T14:20:10;12.23;;;10.87;;
4700;SDS011;8724;51.272;6.554;2023-04-16T14:22:41;16.00;;;11.60;;
4700;SDS011;8724;51.272;6.554;2023-04-16T14:25:11;13.90;;;12.23;;
4700;SDS011;8724;51.272;6.554;2023-04-16T14:27:40;13.80;;;11.47;;
4700;SDS011;8724;51.272;6.554;2023-04-16T14:30:08;14.13;;;12.03;;
4700;SDS011;8724;51.272;6.554;2023-04-16T14:32:37;31.97;;;24.03;;
4700;SDS011;8724;51.272;6.554;2023-04-16T14:35:06;26.50;;;20.60;;
4700;SDS011;8724;51.272;6.554;2023-04-16T14:37:35;17.13;;;13.33;;
4700;SDS011;8724;51.272;6.554;2023-04-16T14:40:06;14.83;;;11.30;;
4700;SDS011;8724;51.272;6.554;2023-04-16T14:42:36;15.33;;;12.20;;
4700;SDS011;8724;51.272;6.554;2023-04-16T14:45:05;13.30;;;11.70;;
4700;SDS011;8724;51.272;6.554;2023-04-16T14:47:35;13.87;;;11.23;;
4700;SDS011;8724;51.272;6.554;2023-04-16T14:50:08;15.57;;;12.30;;
4700;SDS011;8724;51.272;6.554;2023-04-16T14:52:37;13.47;;;12.03;;
4700;SDS011;8724;51.272;6.554;2023-04-16T14:55:07;13.83;;;12.27;;
4700;SDS011;8724;51.272;6.554;2023-04-16T14:57:35;13.70;;;10.70;;
4700;SDS011;8724;51.272;6.554;2023-04-16T15:00:05;14.80;;;11.37;;
4700;SDS011;8724;51.272;6.554;2023-04-16T15:02:36;12.10;;;10.73;;
4700;SDS011;8724;51.272;6.554;2023-04-16T15:05:05;12.13;;;10.83;;
4700;SDS011;8724;51.272;6.554;2023-04-16T15:07:35;10.63;;;9.53;;
4700;SDS011;8724;51.272;6.554;2023-04-16T15:10:04;11.77;;;10.57;;
4700;SDS011;8724;51.272;6.554;2023-04-16T15:12:36;12.10;;;10.83;;
4700;SDS011;8724;51.272;6.554;2023-04-16T15:15:05;10.80;;;9.57;;
4700;SDS011;8724;51.272;6.554;2023-04-16T15:17:35;13.37;;;9.70;;
4700;SDS011;8724;51.272;6.554;2023-04-16T15:20:04;14.10;;;12.10;;
4700;SDS011;8724;51.272;6.554;2023-04-16T15:22:34;14.73;;;11.77;;
4700;SDS011;8724;51.272;6.554;2023-04-16T15:25:04;14.83;;;11.23;;